• Join FlightAware (Why Join?)
  • Login
  • US Flag 
05:49AM EDT


 

Airport Tracker/Info


-or-


 

Live Flight TrackerFlight Track Log ✈ N502QS ✈ 16-Jul-2013 ✈ SBGL / GIG - KMIA

Flight Track Log - Related Links

Times and Time Zones

All times are in EDT time to prevent confusion due to time zone crossing. See the N502QS flight status page for this flight to view local times or setup timezone preferences in your user account.

Time Position Orientation Groundspeed Altitude Reporting Facility
EDT Latitude Longitude Course Direction KTS MPH feet Rate Location/Type
03:52AM 13.1194 -69.8608 321° Northwest  Level Estimated
03:53AM 13.2229 -69.9386 324° Northwest  Level Estimated
03:54AM 13.3264 -70.0165 324° Northwest  Level Estimated
03:55AM 13.4299 -70.0944 324° Northwest  Level Estimated
03:56AM 13.5334 -70.1724 324° Northwest  Level Estimated
03:57AM 13.6368 -70.2505 324° Northwest  Level Estimated
03:58AM 13.7402 -70.3287 324° Northwest  Level Estimated
03:59AM 13.8436 -70.4069 324° Northwest  Level Estimated
04:00AM 13.9470 -70.4851 324° Northwest  Level Estimated
04:01AM 14.0503 -70.5635 324° Northwest  Level Estimated
04:02AM 14.1537 -70.6419 324° Northwest  Level Estimated
04:03AM 14.2569 -70.7204 324° Northwest  Level Estimated
04:04AM 14.3602 -70.7990 324° Northwest  Level Estimated
04:05AM 14.4634 -70.8776 324° Northwest  Level Estimated
04:06AM 14.5667 -70.9563 324° Northwest  Level Estimated
04:07AM 14.6698 -71.0351 324° Northwest  Level Estimated
04:08AM 14.7730 -71.1140 324° Northwest  Level Estimated
04:09AM 14.8761 -71.1929 324° Northwest  Level Estimated
04:10AM 14.9792 -71.2719 323° Northwest  Level Estimated
04:11AM 15.0823 -71.3510 323° Northwest  Level Estimated
04:12AM 15.1854 -71.4301 323° Northwest  Level Estimated
04:13AM 15.2884 -71.5094 323° Northwest  Level Estimated
04:14AM 15.3914 -71.5887 323° Northwest  Level Estimated
04:15AM 15.4944 -71.6681 323° Northwest  Level Estimated
04:16AM 15.5973 -71.7476 323° Northwest  Level Estimated
04:17AM 15.7002 -71.8271 323° Northwest  Level Estimated
04:18AM 15.8031 -71.9067 323° Northwest  Level Estimated
04:19AM 15.9059 -71.9864 323° Northwest  Level Estimated
04:20AM 16.0088 -72.0662 323° Northwest  Level Estimated
04:21AM 16.1115 -72.1461 323° Northwest  Level Estimated
04:22AM 16.2143 -72.2261 323° Northwest  Level Estimated
04:23AM 16.3170 -72.3061 323° Northwest  Level Estimated
04:24AM 16.4197 -72.3863 323° Northwest  Level Estimated
04:25AM 16.5224 -72.4665 323° Northwest  Level Estimated
04:26AM 16.6250 -72.5468 323° Northwest  Level Estimated
04:27AM 16.7276 -72.6271 323° Northwest  Level Estimated
04:28AM 16.8302 -72.7076 323° Northwest  Level Estimated
04:29AM 16.9328 -72.7882 323° Northwest  Level Estimated
04:30AM 17.0353 -72.8688 323° Northwest  Level Estimated
04:31AM 17.1378 -72.9496 323° Northwest  Level Estimated
04:32AM 17.2402 -73.0304 323° Northwest  Level Estimated
04:33AM 17.3427 -73.1113 323° Northwest  Level Estimated
04:34AM 17.4450 -73.1923 323° Northwest  Level Estimated
04:35AM 17.5474 -73.2734 323° Northwest  Level Estimated
04:36AM 17.6497 -73.3546 323° Northwest  Level Estimated
04:37AM 17.7520 -73.4359 323° Northwest  Level Estimated
04:38AM 17.8543 -73.5172 323° Northwest  Level Estimated
04:39AM 17.9565 -73.5987 323° Northwest  Level Estimated
04:40AM 18.0587 -73.6803 323° Northwest  Level Estimated
04:41AM 18.1608 -73.7619 323° Northwest  Level Estimated
04:42AM 18.2630 -73.8437 323° Northwest  Level Estimated
04:42AM 16.6833 -65.5500 323° Northwest 450 518 45,300  Level San Juan Center
04:43AM 18.3650 -73.9255 323° Northwest  Level Estimated
04:43AM 16.7833 -65.6333 321° Northwest 450 518 45,500  Level San Juan Center
04:44AM 18.4671 -74.0074 323° Northwest  Level Estimated
04:44AM 16.8667 -65.7167 316° Northwest 450 518 45,700  Level San Juan Center
04:45AM 18.5691 -74.0895 323° Northwest  Level Estimated
04:45AM 16.9667 -65.8000 321° Northwest 450 518 45,900  Level San Juan Center
04:46AM 18.6711 -74.1716 323° Northwest  Level Estimated
04:46AM 17.0667 -65.8833 321° Northwest 450 518 46,100  Level San Juan Center
04:47AM 18.7730 -74.2539 323° Northwest  Level Estimated
04:47AM 17.1667 -65.9667 321° Northwest 450 518 46,300  Level San Juan Center
04:48AM 18.8653 -74.3284 323° Northwest  Level Estimated
04:48AM 17.2667 -66.0500 321° Northwest 450 518 46,500  Level San Juan Center
04:49AM 17.3667 -66.1333 322° Northwest 460 529 46,700 240 Climbing San Juan Center
04:50AM 17.4667 -66.2167 322° Northwest 460 529 47,000 120 Climbing San Juan Center
04:51AM 17.5500 -66.3000 316° Northwest 450 518 47,000  Level San Juan Center
04:52AM 17.6500 -66.3833 322° Northwest 450 518 47,000  Level San Juan Center
04:53AM 17.7500 -66.4667 322° Northwest 450 518 47,000  Level San Juan Center
04:54AM 17.8500 -66.5500 322° Northwest 440 506 47,000  Level San Juan Center
04:55AM 17.9500 -66.6333 322° Northwest 450 518 47,000  Level San Juan Center
04:56AM 18.0500 -66.7167 322° Northwest 450 518 47,000  Level San Juan Center
04:57AM 18.1500 -66.8000 322° Northwest 450 518 47,000  Level San Juan Center
04:58AM 18.2500 -66.8833 322° Northwest 450 518 47,000  Level San Juan Center
04:59AM 18.3333 -66.9667 316° Northwest 450 518 47,000  Level San Juan Center
05:00AM 18.4333 -67.0500 322° Northwest 450 518 47,000  Level San Juan Center
05:01AM 18.5333 -67.1500 317° Northwest 450 518 47,000  Level San Juan Center
05:02AM 18.6167 -67.2500 311° West 450 518 47,000  Level San Juan Center
05:03AM 18.7000 -67.3667 307° West 470 541 47,000  Level San Juan Center
05:04AM 18.7667 -67.4667 305° West 460 529 47,000  Level San Juan Center
05:05AM 18.8500 -67.5667 311° West 460 529 47,000  Level San Juan Center
05:06AM 18.9333 -67.6833 307° West 450 518 47,000  Level San Juan Center
05:07AM 19.0167 -67.7833 311° West 450 518 47,000  Level San Juan Center
05:08AM 19.0833 -67.8833 305° West 450 518 47,000  Level San Juan Center
05:09AM 19.1500 -67.9833 305° West 440 506 47,000  Level San Juan Center
05:10AM 19.2333 -68.0833 311° West 440 506 47,000  Level San Juan Center
05:11AM 19.3167 -68.1833 311° West 460 529 47,000  Level San Juan Center
05:12AM 19.3833 -68.3000 301° West 460 529 47,000  Level San Juan Center
05:13AM 19.4667 -68.4000 311° West 460 529 47,000  Level San Juan Center
05:14AM 19.5500 -68.5167 307° West 460 529 47,000 -60 Level San Juan Center
05:16AM 19.6547 -68.6500 310° West 537 618 46,900 -60 Descending Miami Center
05:17AM 19.7308 -68.7575 307° West 487 560 46,900  Level Miami Center
05:18AM 19.8033 -68.8700 304° West 474 545 46,900  Level Miami Center
05:19AM 19.8697 -68.9892 301° West 466 536 46,900  Level Miami Center
05:20AM 19.9317 -69.1044 300° West 460 529 46,900  Level Miami Center
05:21AM 19.9978 -69.2242 300° West 465 535 46,900  Level Miami Center
05:22AM 20.0639 -69.3417 301° West 471 542 46,900  Level Miami Center
05:23AM 20.1297 -69.4572 301° West 471 542 46,900  Level Miami Center
05:24AM 20.1958 -69.5772 300° West 471 542 46,900  Level Miami Center
05:25AM 20.2636 -69.6928 302° West 471 542 46,900  Level Miami Center
05:26AM 20.3294 -69.8108 301° West 471 542 46,900  Level Miami Center
05:27AM 20.3931 -69.9311 299° West 471 542 46,900  Level Miami Center
05:28AM 20.4586 -70.0450 302° West 466 536 46,900  Level Miami Center
05:29AM 20.5242 -70.1636 301° West 466 536 46,900  Level Miami Center
05:30AM 20.5897 -70.2819 301° West 466 536 46,900  Level Miami Center
05:31AM 20.6550 -70.4006 300° West 466 536 46,900  Level Miami Center
05:32AM 20.7206 -70.5217 300° West 471 542 46,900  Level Miami Center
05:33AM 20.7881 -70.6425 301° West 471 542 46,900  Level Miami Center
05:34AM 20.8511 -70.7594 300° West 471 542 46,900  Level Miami Center
05:35AM 20.9161 -70.8764 301° West 471 542 46,900  Level Miami Center
05:36AM 20.9811 -70.9978 300° West 471 542 46,900  Level Miami Center
05:37AM 21.0461 -71.1172 300° West 471 542 46,900  Level Miami Center
05:38AM 21.1108 -71.2367 300° West 471 542 46,900  Level Miami Center
05:39AM 21.1803 -71.3694 299° West 471 542 46,900  Level Miami Center
05:40AM 21.2472 -71.4889 301° West 471 542 46,900  Level Miami Center
05:41AM 21.3139 -71.6111 300° West 471 542 46,900  Level Miami Center
05:42AM 21.3806 -71.7308 301° West 471 542 46,900  Level Miami Center
05:43AM 21.4431 -71.8489 300° West 466 536 46,900  Level Miami Center
05:44AM 21.5094 -71.9689 301° West 466 536 46,900  Level Miami Center
05:45AM 21.5736 -72.0892 300° West 466 536 46,900  Level Miami Center
05:46AM 21.6378 -72.2075 300° West 466 536 46,900  Level Miami Center
05:47AM 21.7039 -72.3236 302° West 466 536 46,900  Level Miami Center
05:48AM 21.7639 -72.4444 298° West 461 531 46,900  Level Miami Center
05:49AM 21.8297 -72.5628 301° West 461 531 46,900  Level Miami Center
05:50AM 21.8917 -72.6839 299° West 461 531 46,900  Level Miami Center
05:51AM 21.9553 -72.8028 300° West 461 531 46,900  Level Miami Center
05:52AM 22.0211 -72.9217 301° West 461 531 46,900  Level Miami Center
05:53AM 22.0847 -73.0431 300° West 456 525 46,900  Level Miami Center
05:54AM 22.1461 -73.1622 299° West 456 525 46,900  Level Miami Center
05:55AM 22.2097 -73.2836 300° West 456 525 46,900  Level Miami Center
05:56AM 22.2750 -73.4031 301° West 461 531 46,900  Level Miami Center
05:57AM 22.3300 -73.5206 297° West 451 519 46,900  Level Miami Center
05:58AM 22.3931 -73.6447 299° West 451 519 46,900  Level Miami Center
05:59AM 22.4583 -73.7644 301° West 456 525 46,900  Level Miami Center
06:00AM 22.5192 -73.8844 299° West 456 525 46,900  Level Miami Center
06:01AM 22.5842 -74.0044 300° West 456 525 46,900  Level Miami Center
06:02AM 22.6469 -74.1267 299° West 461 531 46,900  Level Miami Center
06:03AM 22.7117 -74.2492 300° West 461 531 46,900  Level Miami Center
06:04AM 22.7722 -74.3719 298° West 466 536 46,900  Level Miami Center
06:05AM 22.8369 -74.4969 299° West 471 542 46,900  Level Miami Center
06:06AM 22.9017 -74.6197 300° West 471 542 46,900  Level Miami Center
06:07AM 22.9575 -74.7292 299° West 471 542 46,900  Level Miami Center
06:08AM 23.0219 -74.8544 299° West 471 542 46,900  Level Miami Center
06:09AM 23.0842 -74.9778 299° West 471 542 46,900  Level Miami Center
06:10AM 23.1483 -75.1011 300° West 471 542 46,900  Level Miami Center
06:11AM 23.2103 -75.2222 299° West 471 542 46,900  Level Miami Center
06:12AM 23.2722 -75.3458 299° West 471 542 46,900  Level Miami Center
06:13AM 23.3339 -75.4672 299° West 471 542 46,900  Level Miami Center
06:14AM 23.3956 -75.5844 300° West 460 529 46,900  Level Miami Center
06:15AM 23.4636 -75.7264 298° West 465 535 46,900  Level Miami Center
06:16AM 23.5250 -75.8481 299° West 465 535 46,900  Level Miami Center
06:17AM 23.5928 -75.9792 299° West 478 550 46,900  Level Miami Center
06:18AM 23.6519 -76.0989 298° West 463 533 46,900  Level Miami Center
06:19AM 23.7131 -76.2233 298° West 463 533 46,900  Level Miami Center
06:20AM 23.7742 -76.3458 299° West 457 526 46,900  Level Miami Center
06:21AM 23.8353 -76.4681 299° West 457 526 46,900  Level Miami Center
06:22AM 23.8981 -76.5906 299° West 457 526 46,900  Level Miami Center
06:23AM 23.9547 -76.7156 296° West 457 526 46,900  Level Miami Center
06:24AM 24.0175 -76.8406 299° West 457 526 46,900  Level Miami Center
06:25AM 24.0697 -76.9453 299° West 452 520 46,900  Level Miami Center
06:26AM 24.1303 -77.0753 297° West 458 527 46,900  Level Miami Center
06:27AM 24.1906 -77.2006 298° West 463 533 46,900  Level Miami Center
06:28AM 24.2531 -77.3283 298° West 468 539 46,900  Level Miami Center
06:29AM 24.3153 -77.4586 298° West 473 544 46,900  Level Miami Center
06:30AM 24.3753 -77.5844 298° West 468 539 46,900  Level Miami Center
06:31AM 24.4372 -77.7103 298° West 468 539 46,900  Level Miami Center
06:32AM 24.4972 -77.8364 298° West 468 539 46,900  Level Miami Center
06:33AM 24.5589 -77.9647 298° West 468 539 46,900 -1,080 Level Miami Center
06:34AM 24.6186 -78.0886 298° West 468 539 44,800 -2,340 Descending Miami Center
06:35AM 24.6761 -78.2128 297° West 463 533 42,300 -2,460 Descending Miami Center
06:36AM 24.7353 -78.3369 298° West 463 533 39,900 -2,460 Descending Miami Center
06:37AM 24.7928 -78.4544 298° West 449 517 37,400 -2,520 Descending Miami Center
06:38AM 24.8497 -78.5789 297° West 449 517 34,900 -2,580 Descending Miami Center
06:39AM 24.9172 -78.7150 299° West 459 528 32,300 -2,640 Descending Miami Center
06:40AM 24.9803 -78.8489 297° West 470 541 29,700 -2,700 Descending Miami Center
06:41AM 25.0453 -78.9714 300° West 470 541 27,000 -2,580 Descending Miami Center
06:42AM 25.1000 -79.0939 296° West 457 526 24,600 -2,400 Descending Miami Center
06:43AM 25.1547 -79.2119 297° West 445 512 22,200 -2,400 Descending Miami Center
06:44AM 25.2072 -79.3233 298° West 434 499 19,900 -2,160 Descending Miami Center
06:45AM 25.2594 -79.4322 298° West 418 481 17,900 -2,100 Descending Miami Center
06:45AM 25.2936 -79.5181 294° West 392 451 16,300 -2,220 Descending Miami Center
06:46AM 25.3178 -79.5692 298° West 381 438 15,200 -2,340 Descending Miami Center
06:47AM 25.3539 -79.6436 298° West 384 442 13,400 -1,920 Descending Miami Center
06:48AM 25.4022 -79.7414 299° West 373 429 11,900 -1,560 Descending Miami Center
06:49AM 25.4203 -79.8842 278° West 356 410 9,900 -1,620 Descending Miami Center
06:50AM 25.4314 -79.9536 280° West 352 405 8,700 -1,620 Descending Miami Center
06:51AM 25.4414 -80.0667 276° West 293 337 6,800 -1,560 Descending Miami Center
06:52AM 25.4525 -80.1314 281° West 305 351 5,600 -1,500 Descending Miami Center
06:53AM 25.4781 -80.2103 290° West 285 328 4,100 -840 Descending Miami Center
06:54AM 25.5139 -80.2847 298° West 277 319 4,000 -60 Descending Miami Center
06:55AM 25.5478 -80.3550 298° West 272 313 4,000  Level Miami Center
06:56AM 25.5581 -80.4472 277° West 236 272 4,000  Level Miami Center
06:57AM 25.5542 -80.5208 267° West 234 269 4,000  Level Miami Center
06:58AM 25.5817 -80.5861 295° West 243 280 4,000  Level Miami Center
06:59AM 25.6417 -80.6064 343° North 220 253 4,000  Level Miami Center
07:00AM 25.7025 -80.5944 10° North 223 257 4,000 -60 Level Miami Center
07:01AM 25.7556 -80.5708 22° Northeast 220 253 3,900 -540 Descending Miami Center
07:02AM 25.7881 -80.5189 55° Northeast 212 244 3,000 -540 Descending Miami Center
07:03AM 25.7894 -80.4633 88° East 153 176 2,800 -480 Descending Miami Center
07:04AM 25.7928 -80.4150 86° East 151 174 2,000 -780 Descending Miami Center
07:05AM 25.7936 -80.3781 89° East 113 130 1,300 -600 Descending Miami Center
07:06AM 25.7964 -80.3436 85° East 104 120 800 -540 Descending Miami Center